sensor_id;sensor_type;location;lat;lon;timestamp;P1;durP1;ratioP1;P2;durP2;ratioP2
67498;SDS011;54345;42.670;23.218;2022-10-24T00:02:06;19.10;;;5.20;;
67498;SDS011;54345;42.670;23.218;2022-10-24T00:04:36;18.50;;;5.07;;
67498;SDS011;54345;42.670;23.218;2022-10-24T00:07:04;26.07;;;6.50;;
67498;SDS011;54345;42.670;23.218;2022-10-24T00:09:30;26.57;;;6.30;;
67498;SDS011;54345;42.670;23.218;2022-10-24T00:11:56;25.97;;;6.40;;
67498;SDS011;54345;42.670;23.218;2022-10-24T00:14:22;20.70;;;5.00;;
67498;SDS011;54345;42.670;23.218;2022-10-24T00:16:48;22.47;;;6.13;;
67498;SDS011;54345;42.670;23.218;2022-10-24T00:19:13;20.63;;;6.23;;
67498;SDS011;54345;42.670;23.218;2022-10-24T00:21:39;25.30;;;6.57;;
67498;SDS011;54345;42.670;23.218;2022-10-24T00:24:05;18.50;;;5.13;;
67498;SDS011;54345;42.670;23.218;2022-10-24T00:26:31;19.17;;;5.80;;
67498;SDS011;54345;42.670;23.218;2022-10-24T00:28:57;24.10;;;5.97;;
67498;SDS011;54345;42.670;23.218;2022-10-24T00:31:23;27.47;;;6.70;;
67498;SDS011;54345;42.670;23.218;2022-10-24T00:33:48;22.40;;;5.80;;
67498;SDS011;54345;42.670;23.218;2022-10-24T00:36:15;21.53;;;5.73;;
67498;SDS011;54345;42.670;23.218;2022-10-24T00:38:44;17.33;;;4.93;;
67498;SDS011;54345;42.670;23.218;2022-10-24T00:41:14;27.53;;;6.40;;
67498;SDS011;54345;42.670;23.218;2022-10-24T00:43:41;22.47;;;5.73;;
67498;SDS011;54345;42.670;23.218;2022-10-24T00:46:06;23.67;;;6.10;;
67498;SDS011;54345;42.670;23.218;2022-10-24T00:48:34;26.60;;;6.70;;
67498;SDS011;54345;42.670;23.218;2022-10-24T00:51:06;23.07;;;5.97;;
67498;SDS011;54345;42.670;23.218;2022-10-24T00:53:41;23.57;;;5.50;;
67498;SDS011;54345;42.670;23.218;2022-10-24T00:56:09;17.53;;;5.03;;
67498;SDS011;54345;42.670;23.218;2022-10-24T00:58:36;16.03;;;4.73;;
67498;SDS011;54345;42.670;23.218;2022-10-24T01:01:03;20.10;;;4.37;;
67498;SDS011;54345;42.670;23.218;2022-10-24T01:03:30;19.33;;;4.87;;
67498;SDS011;54345;42.670;23.218;2022-10-24T01:06:00;21.33;;;4.80;;
67498;SDS011;54345;42.670;23.218;2022-10-24T01:14:05;22.60;;;5.20;;
67498;SDS011;54345;42.670;23.218;2022-10-24T01:19:14;21.03;;;4.87;;
67498;SDS011;54345;42.670;23.218;2022-10-24T01:22:07;17.77;;;4.20;;
67498;SDS011;54345;42.670;23.218;2022-10-24T01:30:04;16.70;;;3.97;;
67498;SDS011;54345;42.670;23.218;2022-10-24T01:33:15;23.93;;;4.63;;
67498;SDS011;54345;42.670;23.218;2022-10-24T01:35:45;21.07;;;4.43;;
67498;SDS011;54345;42.670;23.218;2022-10-24T01:38:23;17.77;;;4.63;;
67498;SDS011;54345;42.670;23.218;2022-10-24T01:43:26;15.93;;;4.17;;
67498;SDS011;54345;42.670;23.218;2022-10-24T01:46:03;21.47;;;4.97;;
67498;SDS011;54345;42.670;23.218;2022-10-24T01:48:34;23.67;;;5.37;;
67498;SDS011;54345;42.670;23.218;2022-10-24T01:51:07;25.00;;;5.13;;
67498;SDS011;54345;42.670;23.218;2022-10-24T01:53:35;15.87;;;4.23;;
67498;SDS011;54345;42.670;23.218;2022-10-24T01:56:03;15.77;;;4.33;;
67498;SDS011;54345;42.670;23.218;2022-10-24T01:58:29;18.37;;;4.87;;
67498;SDS011;54345;42.670;23.218;2022-10-24T02:00:56;20.43;;;4.90;;
67498;SDS011;54345;42.670;23.218;2022-10-24T02:03:30;17.73;;;4.43;;
67498;SDS011;54345;42.670;23.218;2022-10-24T02:06:07;26.37;;;4.83;;
67498;SDS011;54345;42.670;23.218;2022-10-24T02:08:40;19.60;;;4.33;;
67498;SDS011;54345;42.670;23.218;2022-10-24T02:11:10;20.90;;;4.90;;
67498;SDS011;54345;42.670;23.218;2022-10-24T02:13:44;24.40;;;4.83;;
67498;SDS011;54345;42.670;23.218;2022-10-24T02:16:20;15.43;;;4.37;;
67498;SDS011;54345;42.670;23.218;2022-10-24T02:18:46;22.27;;;4.90;;
67498;SDS011;54345;42.670;23.218;2022-10-24T02:21:27;17.67;;;4.43;;
67498;SDS011;54345;42.670;23.218;2022-10-24T02:26:37;16.20;;;4.33;;
67498;SDS011;54345;42.670;23.218;2022-10-24T02:29:13;21.00;;;4.80;;
67498;SDS011;54345;42.670;23.218;2022-10-24T02:31:44;20.60;;;4.63;;
67498;SDS011;54345;42.670;23.218;2022-10-24T02:34:16;16.17;;;5.50;;
67498;SDS011;54345;42.670;23.218;2022-10-24T02:36:43;24.50;;;5.03;;
67498;SDS011;54345;42.670;23.218;2022-10-24T02:39:10;19.47;;;4.67;;
67498;SDS011;54345;42.670;23.218;2022-10-24T02:41:38;16.57;;;4.07;;
67498;SDS011;54345;42.670;23.218;2022-10-24T02:44:07;19.30;;;4.23;;
67498;SDS011;54345;42.670;23.218;2022-10-24T02:46:34;22.87;;;4.73;;
67498;SDS011;54345;42.670;23.218;2022-10-24T02:49:01;18.50;;;4.30;;
67498;SDS011;54345;42.670;23.218;2022-10-24T02:51:30;23.23;;;4.63;;
67498;SDS011;54345;42.670;23.218;2022-10-24T02:53:58;20.27;;;4.57;;
67498;SDS011;54345;42.670;23.218;2022-10-24T02:56:25;17.27;;;4.37;;
67498;SDS011;54345;42.670;23.218;2022-10-24T02:58:50;24.47;;;5.10;;
67498;SDS011;54345;42.670;23.218;2022-10-24T03:01:16;16.67;;;4.40;;
67498;SDS011;54345;42.670;23.218;2022-10-24T03:03:41;18.93;;;4.37;;
67498;SDS011;54345;42.670;23.218;2022-10-24T03:06:07;27.03;;;4.60;;
67498;SDS011;54345;42.670;23.218;2022-10-24T03:08:33;23.40;;;4.80;;
67498;SDS011;54345;42.670;23.218;2022-10-24T03:10:59;20.17;;;4.70;;
67498;SDS011;54345;42.670;23.218;2022-10-24T03:13:24;19.43;;;4.57;;
67498;SDS011;54345;42.670;23.218;2022-10-24T03:15:50;24.00;;;5.50;;
67498;SDS011;54345;42.670;23.218;2022-10-24T03:18:15;18.70;;;5.00;;
67498;SDS011;54345;42.670;23.218;2022-10-24T03:20:41;17.53;;;5.43;;
67498;SDS011;54345;42.670;23.218;2022-10-24T03:23:06;25.97;;;5.63;;
67498;SDS011;54345;42.670;23.218;2022-10-24T03:25:32;28.90;;;5.90;;
67498;SDS011;54345;42.670;23.218;2022-10-24T03:27:58;24.57;;;5.40;;
67498;SDS011;54345;42.670;23.218;2022-10-24T03:30:23;25.30;;;5.87;;
67498;SDS011;54345;42.670;23.218;2022-10-24T03:32:49;17.27;;;5.13;;
67498;SDS011;54345;42.670;23.218;2022-10-24T03:35:14;19.03;;;5.07;;
67498;SDS011;54345;42.670;23.218;2022-10-24T03:37:41;21.00;;;5.87;;
67498;SDS011;54345;42.670;23.218;2022-10-24T03:40:07;20.27;;;5.80;;
67498;SDS011;54345;42.670;23.218;2022-10-24T03:42:34;24.47;;;5.60;;
67498;SDS011;54345;42.670;23.218;2022-10-24T03:45:00;23.87;;;5.70;;
67498;SDS011;54345;42.670;23.218;2022-10-24T03:47:25;25.17;;;5.63;;
67498;SDS011;54345;42.670;23.218;2022-10-24T03:49:51;18.50;;;5.10;;
67498;SDS011;54345;42.670;23.218;2022-10-24T03:52:17;18.37;;;4.70;;
67498;SDS011;54345;42.670;23.218;2022-10-24T03:54:42;22.03;;;5.40;;
67498;SDS011;54345;42.670;23.218;2022-10-24T03:57:08;24.20;;;5.87;;
67498;SDS011;54345;42.670;23.218;2022-10-24T03:59:34;25.23;;;5.67;;
67498;SDS011;54345;42.670;23.218;2022-10-24T04:02:00;24.53;;;6.00;;
67498;SDS011;54345;42.670;23.218;2022-10-24T04:04:27;14.67;;;4.93;;
67498;SDS011;54345;42.670;23.218;2022-10-24T04:06:53;23.03;;;5.73;;
67498;SDS011;54345;42.670;23.218;2022-10-24T04:09:19;21.40;;;6.10;;
67498;SDS011;54345;42.670;23.218;2022-10-24T04:11:46;23.13;;;5.77;;
67498;SDS011;54345;42.670;23.218;2022-10-24T04:14:12;19.10;;;5.40;;
67498;SDS011;54345;42.670;23.218;2022-10-24T04:16:38;27.57;;;6.77;;
67498;SDS011;54345;42.670;23.218;2022-10-24T04:19:04;23.27;;;6.20;;
67498;SDS011;54345;42.670;23.218;2022-10-24T04:21:30;22.13;;;6.17;;
67498;SDS011;54345;42.670;23.218;2022-10-24T04:23:55;17.83;;;5.30;;
67498;SDS011;54345;42.670;23.218;2022-10-24T04:26:21;21.70;;;5.47;;
67498;SDS011;54345;42.670;23.218;2022-10-24T04:28:47;17.53;;;5.43;;
67498;SDS011;54345;42.670;23.218;2022-10-24T04:31:13;19.73;;;6.00;;
67498;SDS011;54345;42.670;23.218;2022-10-24T04:33:39;17.20;;;5.37;;
67498;SDS011;54345;42.670;23.218;2022-10-24T04:36:05;23.90;;;6.33;;
67498;SDS011;54345;42.670;23.218;2022-10-24T04:38:31;23.33;;;6.00;;
67498;SDS011;54345;42.670;23.218;2022-10-24T04:40:56;20.63;;;5.53;;
67498;SDS011;54345;42.670;23.218;2022-10-24T04:43:22;26.57;;;6.27;;
67498;SDS011;54345;42.670;23.218;2022-10-24T04:45:49;22.47;;;5.97;;
67498;SDS011;54345;42.670;23.218;2022-10-24T04:48:15;20.27;;;5.63;;
67498;SDS011;54345;42.670;23.218;2022-10-24T04:50:42;22.33;;;5.60;;
67498;SDS011;54345;42.670;23.218;2022-10-24T04:53:08;40.87;;;7.07;;
67498;SDS011;54345;42.670;23.218;2022-10-24T04:55:34;26.43;;;6.50;;
67498;SDS011;54345;42.670;23.218;2022-10-24T04:57:59;19.63;;;5.83;;
67498;SDS011;54345;42.670;23.218;2022-10-24T05:00:25;26.10;;;5.90;;
67498;SDS011;54345;42.670;23.218;2022-10-24T05:02:51;20.30;;;6.13;;
67498;SDS011;54345;42.670;23.218;2022-10-24T05:05:17;14.93;;;4.47;;
67498;SDS011;54345;42.670;23.218;2022-10-24T05:07:43;22.27;;;5.87;;
67498;SDS011;54345;42.670;23.218;2022-10-24T05:10:09;24.53;;;6.03;;
67498;SDS011;54345;42.670;23.218;2022-10-24T05:12:35;27.17;;;6.23;;
67498;SDS011;54345;42.670;23.218;2022-10-24T05:15:00;48.43;;;8.90;;
67498;SDS011;54345;42.670;23.218;2022-10-24T05:17:26;33.77;;;6.73;;
67498;SDS011;54345;42.670;23.218;2022-10-24T05:19:52;23.20;;;6.33;;
67498;SDS011;54345;42.670;23.218;2022-10-24T05:22:18;20.57;;;7.10;;
67498;SDS011;54345;42.670;23.218;2022-10-24T05:24:43;22.70;;;6.67;;
67498;SDS011;54345;42.670;23.218;2022-10-24T05:27:09;24.63;;;6.13;;
67498;SDS011;54345;42.670;23.218;2022-10-24T05:29:34;31.30;;;8.00;;
67498;SDS011;54345;42.670;23.218;2022-10-24T05:32:00;24.23;;;6.27;;
67498;SDS011;54345;42.670;23.218;2022-10-24T05:34:26;22.17;;;6.10;;
67498;SDS011;54345;42.670;23.218;2022-10-24T05:36:51;18.73;;;6.40;;
67498;SDS011;54345;42.670;23.218;2022-10-24T05:39:17;18.83;;;5.63;;
67498;SDS011;54345;42.670;23.218;2022-10-24T05:41:43;21.93;;;6.30;;
67498;SDS011;54345;42.670;23.218;2022-10-24T05:44:10;33.63;;;6.93;;
67498;SDS011;54345;42.670;23.218;2022-10-24T05:46:36;23.33;;;6.40;;
67498;SDS011;54345;42.670;23.218;2022-10-24T05:49:02;31.53;;;6.77;;
67498;SDS011;54345;42.670;23.218;2022-10-24T05:51:28;22.17;;;6.33;;
67498;SDS011;54345;42.670;23.218;2022-10-24T05:53:53;29.20;;;7.37;;
67498;SDS011;54345;42.670;23.218;2022-10-24T05:56:20;18.03;;;6.33;;
67498;SDS011;54345;42.670;23.218;2022-10-24T05:58:45;32.60;;;7.13;;
67498;SDS011;54345;42.670;23.218;2022-10-24T06:01:11;31.50;;;7.30;;
67498;SDS011;54345;42.670;23.218;2022-10-24T06:03:37;37.70;;;8.00;;
67498;SDS011;54345;42.670;23.218;2022-10-24T06:06:07;34.23;;;6.97;;
67498;SDS011;54345;42.670;23.218;2022-10-24T06:08:34;36.20;;;6.60;;
67498;SDS011;54345;42.670;23.218;2022-10-24T06:11:00;52.73;;;8.53;;
67498;SDS011;54345;42.670;23.218;2022-10-24T06:13:26;43.20;;;8.27;;
67498;SDS011;54345;42.670;23.218;2022-10-24T06:15:52;25.40;;;6.90;;
67498;SDS011;54345;42.670;23.218;2022-10-24T06:18:18;31.43;;;7.43;;
67498;SDS011;54345;42.670;23.218;2022-10-24T06:20:43;45.83;;;8.80;;
67498;SDS011;54345;42.670;23.218;2022-10-24T06:23:09;54.83;;;9.30;;
67498;SDS011;54345;42.670;23.218;2022-10-24T06:25:35;19.03;;;5.73;;
67498;SDS011;54345;42.670;23.218;2022-10-24T06:28:00;26.57;;;6.10;;
67498;SDS011;54345;42.670;23.218;2022-10-24T06:30:26;27.87;;;6.50;;
67498;SDS011;54345;42.670;23.218;2022-10-24T06:32:52;40.97;;;7.97;;
67498;SDS011;54345;42.670;23.218;2022-10-24T06:35:17;55.37;;;8.77;;
67498;SDS011;54345;42.670;23.218;2022-10-24T06:37:44;28.30;;;6.73;;
67498;SDS011;54345;42.670;23.218;2022-10-24T06:40:10;36.50;;;7.80;;
67498;SDS011;54345;42.670;23.218;2022-10-24T06:42:36;43.77;;;7.97;;
67498;SDS011;54345;42.670;23.218;2022-10-24T06:45:01;43.47;;;8.00;;
67498;SDS011;54345;42.670;23.218;2022-10-24T06:47:28;45.37;;;8.00;;
67498;SDS011;54345;42.670;23.218;2022-10-24T06:49:53;52.27;;;9.27;;
67498;SDS011;54345;42.670;23.218;2022-10-24T06:52:19;48.80;;;9.53;;
67498;SDS011;54345;42.670;23.218;2022-10-24T06:54:44;40.43;;;9.17;;
67498;SDS011;54345;42.670;23.218;2022-10-24T06:57:10;24.77;;;7.63;;
67498;SDS011;54345;42.670;23.218;2022-10-24T06:59:35;50.67;;;9.87;;
67498;SDS011;54345;42.670;23.218;2022-10-24T07:02:01;28.87;;;7.30;;
67498;SDS011;54345;42.670;23.218;2022-10-24T07:04:26;39.07;;;8.43;;
67498;SDS011;54345;42.670;23.218;2022-10-24T07:06:52;52.40;;;9.37;;
67498;SDS011;54345;42.670;23.218;2022-10-24T07:09:17;43.83;;;8.43;;
67498;SDS011;54345;42.670;23.218;2022-10-24T07:11:43;35.77;;;7.73;;
67498;SDS011;54345;42.670;23.218;2022-10-24T07:14:09;42.27;;;8.77;;
67498;SDS011;54345;42.670;23.218;2022-10-24T07:16:35;38.47;;;8.13;;
67498;SDS011;54345;42.670;23.218;2022-10-24T07:19:02;22.60;;;6.17;;
67498;SDS011;54345;42.670;23.218;2022-10-24T07:21:30;38.83;;;7.67;;
67498;SDS011;54345;42.670;23.218;2022-10-24T07:23:56;46.13;;;8.57;;
67498;SDS011;54345;42.670;23.218;2022-10-24T07:26:23;22.20;;;6.47;;
67498;SDS011;54345;42.670;23.218;2022-10-24T07:28:53;23.23;;;7.00;;
67498;SDS011;54345;42.670;23.218;2022-10-24T07:31:23;55.37;;;10.60;;
67498;SDS011;54345;42.670;23.218;2022-10-24T07:33:50;24.07;;;6.70;;
67498;SDS011;54345;42.670;23.218;2022-10-24T07:36:20;21.43;;;6.10;;
67498;SDS011;54345;42.670;23.218;2022-10-24T07:38:47;30.30;;;8.30;;
67498;SDS011;54345;42.670;23.218;2022-10-24T07:41:13;27.57;;;7.73;;
67498;SDS011;54345;42.670;23.218;2022-10-24T07:43:40;34.63;;;8.33;;
67498;SDS011;54345;42.670;23.218;2022-10-24T07:46:09;21.57;;;7.67;;
67498;SDS011;54345;42.670;23.218;2022-10-24T07:48:37;52.03;;;11.23;;
67498;SDS011;54345;42.670;23.218;2022-10-24T07:51:06;42.30;;;9.10;;
67498;SDS011;54345;42.670;23.218;2022-10-24T07:53:33;27.93;;;9.33;;
67498;SDS011;54345;42.670;23.218;2022-10-24T07:56:00;33.33;;;11.20;;
67498;SDS011;54345;42.670;23.218;2022-10-24T07:58:26;39.43;;;11.63;;
67498;SDS011;54345;42.670;23.218;2022-10-24T08:00:52;27.53;;;10.03;;
67498;SDS011;54345;42.670;23.218;2022-10-24T08:03:18;28.10;;;11.00;;
67498;SDS011;54345;42.670;23.218;2022-10-24T08:05:44;35.90;;;10.33;;
67498;SDS011;54345;42.670;23.218;2022-10-24T08:08:10;31.00;;;10.80;;
67498;SDS011;54345;42.670;23.218;2022-10-24T08:10:35;28.27;;;10.57;;
67498;SDS011;54345;42.670;23.218;2022-10-24T08:13:02;31.10;;;10.37;;
67498;SDS011;54345;42.670;23.218;2022-10-24T08:15:28;34.20;;;11.00;;
67498;SDS011;54345;42.670;23.218;2022-10-24T08:17:54;32.13;;;10.83;;
67498;SDS011;54345;42.670;23.218;2022-10-24T08:20:19;33.27;;;9.93;;
67498;SDS011;54345;42.670;23.218;2022-10-24T08:22:45;29.93;;;9.30;;
67498;SDS011;54345;42.670;23.218;2022-10-24T08:25:11;30.80;;;9.43;;
67498;SDS011;54345;42.670;23.218;2022-10-24T08:27:39;27.33;;;9.20;;
67498;SDS011;54345;42.670;23.218;2022-10-24T08:30:05;35.87;;;9.77;;
67498;SDS011;54345;42.670;23.218;2022-10-24T08:32:31;27.23;;;9.77;;
67498;SDS011;54345;42.670;23.218;2022-10-24T08:34:57;38.23;;;11.20;;
67498;SDS011;54345;42.670;23.218;2022-10-24T08:37:23;38.57;;;10.20;;
67498;SDS011;54345;42.670;23.218;2022-10-24T08:39:49;29.70;;;10.37;;
67498;SDS011;54345;42.670;23.218;2022-10-24T08:42:14;61.87;;;15.30;;
67498;SDS011;54345;42.670;23.218;2022-10-24T08:44:43;25.53;;;10.30;;
67498;SDS011;54345;42.670;23.218;2022-10-24T08:47:34;37.57;;;11.10;;
67498;SDS011;54345;42.670;23.218;2022-10-24T08:50:16;34.97;;;10.30;;
67498;SDS011;54345;42.670;23.218;2022-10-24T08:52:47;35.53;;;11.13;;
67498;SDS011;54345;42.670;23.218;2022-10-24T08:55:15;32.17;;;10.53;;
67498;SDS011;54345;42.670;23.218;2022-10-24T08:57:46;34.10;;;11.20;;
67498;SDS011;54345;42.670;23.218;2022-10-24T09:00:27;26.57;;;9.23;;
67498;SDS011;54345;42.670;23.218;2022-10-24T09:03:00;28.50;;;10.57;;
67498;SDS011;54345;42.670;23.218;2022-10-24T09:05:40;30.77;;;10.27;;
67498;SDS011;54345;42.670;23.218;2022-10-24T09:08:21;37.07;;;12.70;;
67498;SDS011;54345;42.670;23.218;2022-10-24T09:11:00;37.77;;;11.43;;
67498;SDS011;54345;42.670;23.218;2022-10-24T09:13:28;30.13;;;11.40;;
67498;SDS011;54345;42.670;23.218;2022-10-24T09:15:54;36.73;;;11.80;;
67498;SDS011;54345;42.670;23.218;2022-10-24T09:18:25;36.73;;;11.50;;
67498;SDS011;54345;42.670;23.218;2022-10-24T09:20:55;53.33;;;13.23;;
67498;SDS011;54345;42.670;23.218;2022-10-24T09:23:22;28.20;;;11.40;;
67498;SDS011;54345;42.670;23.218;2022-10-24T09:25:50;34.43;;;12.83;;
67498;SDS011;54345;42.670;23.218;2022-10-24T09:28:17;32.50;;;11.53;;
67498;SDS011;54345;42.670;23.218;2022-10-24T09:30:44;36.30;;;11.47;;
67498;SDS011;54345;42.670;23.218;2022-10-24T09:33:26;29.43;;;11.97;;
67498;SDS011;54345;42.670;23.218;2022-10-24T09:35:58;48.33;;;13.23;;
67498;SDS011;54345;42.670;23.218;2022-10-24T09:38:36;26.83;;;11.03;;
67498;SDS011;54345;42.670;23.218;2022-10-24T09:46:15;32.37;;;11.77;;
67498;SDS011;54345;42.670;23.218;2022-10-24T09:53:59;49.07;;;14.93;;
67498;SDS011;54345;42.670;23.218;2022-10-24T10:02:13;44.70;;;15.13;;
67498;SDS011;54345;42.670;23.218;2022-10-24T10:04:43;40.17;;;14.10;;
67498;SDS011;54345;42.670;23.218;2022-10-24T10:07:17;37.80;;;13.37;;
67498;SDS011;54345;42.670;23.218;2022-10-24T10:09:53;41.67;;;15.13;;
67498;SDS011;54345;42.670;23.218;2022-10-24T10:12:26;41.40;;;15.90;;
67498;SDS011;54345;42.670;23.218;2022-10-24T10:14:55;37.10;;;15.13;;
67498;SDS011;54345;42.670;23.218;2022-10-24T10:17:22;52.73;;;16.87;;
67498;SDS011;54345;42.670;23.218;2022-10-24T10:19:51;37.33;;;12.57;;
67498;SDS011;54345;42.670;23.218;2022-10-24T10:22:28;39.10;;;15.63;;
67498;SDS011;54345;42.670;23.218;2022-10-24T10:24:56;38.60;;;16.27;;
67498;SDS011;54345;42.670;23.218;2022-10-24T10:30:17;37.87;;;15.57;;
67498;SDS011;54345;42.670;23.218;2022-10-24T10:41:02;48.33;;;15.83;;
67498;SDS011;54345;42.670;23.218;2022-10-24T10:46:19;40.88;;;15.60;;
67498;SDS011;54345;42.670;23.218;2022-10-24T10:49:09;35.60;;;14.47;;
67498;SDS011;54345;42.670;23.218;2022-10-24T10:55:02;38.80;;;15.03;;
67498;SDS011;54345;42.670;23.218;2022-10-24T11:00:45;48.17;;;15.38;;
67498;SDS011;54345;42.670;23.218;2022-10-24T11:03:32;47.28;;;15.60;;
67498;SDS011;54345;42.670;23.218;2022-10-24T11:06:23;49.58;;;14.80;;
67498;SDS011;54345;42.670;23.218;2022-10-24T11:11:37;35.75;;;14.85;;
67498;SDS011;54345;42.670;23.218;2022-10-24T11:16:48;40.85;;;14.45;;
67498;SDS011;54345;42.670;23.218;2022-10-24T11:22:14;33.97;;;13.90;;
67498;SDS011;54345;42.670;23.218;2022-10-24T11:24:47;47.28;;;15.27;;
67498;SDS011;54345;42.670;23.218;2022-10-24T11:27:51;33.88;;;14.50;;
67498;SDS011;54345;42.670;23.218;2022-10-24T11:30:16;36.60;;;14.00;;
67498;SDS011;54345;42.670;23.218;2022-10-24T11:32:55;37.28;;;13.73;;
67498;SDS011;54345;42.670;23.218;2022-10-24T11:35:30;34.13;;;13.32;;
67498;SDS011;54345;42.670;23.218;2022-10-24T11:38:14;32.83;;;14.55;;
67498;SDS011;54345;42.670;23.218;2022-10-24T11:40:49;39.50;;;14.85;;
67498;SDS011;54345;42.670;23.218;2022-10-24T11:43:22;30.17;;;13.68;;
67498;SDS011;54345;42.670;23.218;2022-10-24T11:46:03;40.90;;;14.10;;
67498;SDS011;54345;42.670;23.218;2022-10-24T11:51:30;32.97;;;13.93;;
67498;SDS011;54345;42.670;23.218;2022-10-24T11:54:24;34.00;;;13.02;;
67498;SDS011;54345;42.670;23.218;2022-10-24T11:56:58;40.67;;;12.20;;
67498;SDS011;54345;42.670;23.218;2022-10-24T11:59:28;34.78;;;12.55;;
67498;SDS011;54345;42.670;23.218;2022-10-24T12:09:54;43.72;;;12.40;;
67498;SDS011;54345;42.670;23.218;2022-10-24T12:18:00;51.35;;;14.57;;
67498;SDS011;54345;42.670;23.218;2022-10-24T12:20:37;39.50;;;12.43;;
67498;SDS011;54345;42.670;23.218;2022-10-24T12:23:04;32.83;;;11.52;;
67498;SDS011;54345;42.670;23.218;2022-10-24T12:25:34;31.38;;;11.35;;
67498;SDS011;54345;42.670;23.218;2022-10-24T12:28:03;31.52;;;11.52;;
67498;SDS011;54345;42.670;23.218;2022-10-24T12:30:33;35.50;;;10.80;;
67498;SDS011;54345;42.670;23.218;2022-10-24T12:33:08;47.30;;;11.98;;
67498;SDS011;54345;42.670;23.218;2022-10-24T12:35:51;41.45;;;13.07;;
67498;SDS011;54345;42.670;23.218;2022-10-24T12:40:59;31.17;;;11.35;;
67498;SDS011;54345;42.670;23.218;2022-10-24T12:43:43;35.55;;;10.82;;
67498;SDS011;54345;42.670;23.218;2022-10-24T12:56:51;34.42;;;11.30;;
67498;SDS011;54345;42.670;23.218;2022-10-24T13:02:24;30.05;;;11.00;;
67498;SDS011;54345;42.670;23.218;2022-10-24T13:07:54;35.33;;;10.57;;
67498;SDS011;54345;42.670;23.218;2022-10-24T13:10:32;47.85;;;11.63;;
67498;SDS011;54345;42.670;23.218;2022-10-24T13:21:50;26.13;;;10.18;;
67498;SDS011;54345;42.670;23.218;2022-10-24T13:24:22;35.72;;;11.40;;
67498;SDS011;54345;42.670;23.218;2022-10-24T13:31:52;34.33;;;11.20;;
67498;SDS011;54345;42.670;23.218;2022-10-24T13:36:51;32.40;;;11.00;;
67498;SDS011;54345;42.670;23.218;2022-10-24T13:39:23;39.08;;;13.75;;
67498;SDS011;54345;42.670;23.218;2022-10-24T13:42:00;28.40;;;10.93;;
67498;SDS011;54345;42.670;23.218;2022-10-24T13:44:40;37.50;;;12.35;;
67498;SDS011;54345;42.670;23.218;2022-10-24T13:47:14;34.38;;;10.65;;
67498;SDS011;54345;42.670;23.218;2022-10-24T13:57:46;36.17;;;10.35;;
67498;SDS011;54345;42.670;23.218;2022-10-24T14:00:17;29.95;;;10.15;;
67498;SDS011;54345;42.670;23.218;2022-10-24T14:02:51;33.70;;;10.05;;
67498;SDS011;54345;42.670;23.218;2022-10-24T14:05:25;28.13;;;8.88;;
67498;SDS011;54345;42.670;23.218;2022-10-24T14:07:57;29.83;;;9.15;;
67498;SDS011;54345;42.670;23.218;2022-10-24T14:10:24;31.17;;;9.48;;
67498;SDS011;54345;42.670;23.218;2022-10-24T14:12:51;28.38;;;9.40;;
67498;SDS011;54345;42.670;23.218;2022-10-24T14:15:30;32.25;;;10.25;;
67498;SDS011;54345;42.670;23.218;2022-10-24T14:20:24;27.55;;;9.18;;
67498;SDS011;54345;42.670;23.218;2022-10-24T14:22:52;26.50;;;9.00;;
67498;SDS011;54345;42.670;23.218;2022-10-24T14:25:21;34.70;;;10.40;;
67498;SDS011;54345;42.670;23.218;2022-10-24T14:27:49;43.92;;;9.98;;
67498;SDS011;54345;42.670;23.218;2022-10-24T14:30:20;38.83;;;9.23;;
67498;SDS011;54345;42.670;23.218;2022-10-24T14:32:47;30.88;;;8.73;;
67498;SDS011;54345;42.670;23.218;2022-10-24T14:35:14;36.47;;;10.23;;
67498;SDS011;54345;42.670;23.218;2022-10-24T14:37:40;34.17;;;8.95;;
67498;SDS011;54345;42.670;23.218;2022-10-24T14:40:14;39.53;;;10.88;;
67498;SDS011;54345;42.670;23.218;2022-10-24T14:42:42;34.13;;;9.98;;
67498;SDS011;54345;42.670;23.218;2022-10-24T14:48:12;30.02;;;9.48;;
67498;SDS011;54345;42.670;23.218;2022-10-24T14:50:47;35.20;;;8.90;;
67498;SDS011;54345;42.670;23.218;2022-10-24T14:53:19;36.25;;;9.70;;
67498;SDS011;54345;42.670;23.218;2022-10-24T14:55:51;34.97;;;9.75;;
67498;SDS011;54345;42.670;23.218;2022-10-24T14:58:22;44.80;;;11.23;;
67498;SDS011;54345;42.670;23.218;2022-10-24T15:00:52;36.53;;;9.45;;
67498;SDS011;54345;42.670;23.218;2022-10-24T15:03:19;43.58;;;10.93;;
67498;SDS011;54345;42.670;23.218;2022-10-24T15:05:58;38.10;;;10.52;;
67498;SDS011;54345;42.670;23.218;2022-10-24T15:08:38;45.22;;;10.20;;
67498;SDS011;54345;42.670;23.218;2022-10-24T15:11:16;34.60;;;9.55;;
67498;SDS011;54345;42.670;23.218;2022-10-24T15:13:49;36.30;;;9.80;;
67498;SDS011;54345;42.670;23.218;2022-10-24T15:16:31;31.65;;;9.13;;
67498;SDS011;54345;42.670;23.218;2022-10-24T15:19:00;38.38;;;9.35;;
67498;SDS011;54345;42.670;23.218;2022-10-24T15:21:30;39.03;;;9.43;;
67498;SDS011;54345;42.670;23.218;2022-10-24T15:24:00;47.13;;;10.80;;
67498;SDS011;54345;42.670;23.218;2022-10-24T15:26:33;28.40;;;8.30;;
67498;SDS011;54345;42.670;23.218;2022-10-24T15:31:42;30.42;;;7.70;;
67498;SDS011;54345;42.670;23.218;2022-10-24T15:34:13;30.95;;;7.93;;
67498;SDS011;54345;42.670;23.218;2022-10-24T15:36:40;34.50;;;7.18;;
67498;SDS011;54345;42.670;23.218;2022-10-24T15:39:11;25.35;;;7.45;;
67498;SDS011;54345;42.670;23.218;2022-10-24T15:41:39;35.88;;;8.27;;
67498;SDS011;54345;42.670;23.218;2022-10-24T15:44:05;34.72;;;7.75;;
67498;SDS011;54345;42.670;23.218;2022-10-24T15:46:40;31.02;;;7.55;;
67498;SDS011;54345;42.670;23.218;2022-10-24T15:49:05;24.20;;;6.55;;
67498;SDS011;54345;42.670;23.218;2022-10-24T15:51:31;28.10;;;6.93;;
67498;SDS011;54345;42.670;23.218;2022-10-24T15:53:57;32.00;;;7.78;;
67498;SDS011;54345;42.670;23.218;2022-10-24T15:56:22;28.85;;;6.05;;
67498;SDS011;54345;42.670;23.218;2022-10-24T15:58:48;22.35;;;6.60;;
67498;SDS011;54345;42.670;23.218;2022-10-24T16:01:37;25.90;;;6.45;;
67498;SDS011;54345;42.670;23.218;2022-10-24T16:04:08;25.27;;;6.53;;
67498;SDS011;54345;42.670;23.218;2022-10-24T16:06:35;30.90;;;7.22;;
67498;SDS011;54345;42.670;23.218;2022-10-24T16:09:00;35.40;;;6.85;;
67498;SDS011;54345;42.670;23.218;2022-10-24T16:11:27;25.25;;;5.97;;
67498;SDS011;54345;42.670;23.218;2022-10-24T16:13:53;29.50;;;6.78;;
67498;SDS011;54345;42.670;23.218;2022-10-24T16:16:20;31.50;;;6.32;;
67498;SDS011;54345;42.670;23.218;2022-10-24T16:18:46;31.05;;;6.30;;
67498;SDS011;54345;42.670;23.218;2022-10-24T16:21:15;38.10;;;7.50;;
67498;SDS011;54345;42.670;23.218;2022-10-24T16:23:43;32.50;;;6.78;;
67498;SDS011;54345;42.670;23.218;2022-10-24T16:26:08;30.02;;;6.50;;
67498;SDS011;54345;42.670;23.218;2022-10-24T16:28:34;37.15;;;6.57;;
67498;SDS011;54345;42.670;23.218;2022-10-24T16:30:59;34.53;;;7.10;;
67498;SDS011;54345;42.670;23.218;2022-10-24T16:33:25;35.17;;;7.75;;
67498;SDS011;54345;42.670;23.218;2022-10-24T16:35:50;32.58;;;6.53;;
67498;SDS011;54345;42.670;23.218;2022-10-24T16:38:16;30.48;;;6.55;;
67498;SDS011;54345;42.670;23.218;2022-10-24T16:40:43;34.88;;;7.47;;
67498;SDS011;54345;42.670;23.218;2022-10-24T16:43:11;37.95;;;6.63;;